createdAt,value
2023-03-31T00:03:05.662Z,5.47
2023-03-31T00:08:07.548Z,8.10
2023-03-31T00:13:10.660Z,10.20
2023-03-31T00:18:12.510Z,5.60
2023-03-31T00:23:14.389Z,4.60
2023-03-31T00:28:16.509Z,6.83
2023-03-31T00:33:18.451Z,6.13
2023-03-31T00:38:20.362Z,6.10
2023-03-31T00:43:38.698Z,6.80
2023-03-31T00:48:40.541Z,5.70
2023-03-31T00:53:42.397Z,5.27
2023-03-31T00:58:44.473Z,6.15
2023-03-31T01:03:47.080Z,4.35
2023-03-31T01:13:51.477Z,5.25
2023-03-31T01:18:53.328Z,4.93
2023-03-31T01:24:04.165Z,5.37
2023-03-31T01:29:14.614Z,4.15
2023-03-31T01:34:31.300Z,3.67
2023-03-31T01:40:14.347Z,4.40
2023-03-31T01:45:28.535Z,4.13
2023-03-31T01:50:46.125Z,4.20
2023-03-31T01:55:55.709Z,4.65
2023-03-31T02:01:21.977Z,5.75
2023-03-31T02:06:26.443Z,4.63
2023-03-31T02:11:29.052Z,3.92
2023-03-31T02:21:33.310Z,4.05
2023-03-31T02:31:48.848Z,4.10
2023-03-31T02:36:50.764Z,4.78
2023-03-31T02:41:52.579Z,3.83
2023-03-31T02:46:54.625Z,4.60
2023-03-31T02:52:03.115Z,5.18
2023-03-31T02:57:24.716Z,5.28
2023-03-31T03:02:51.045Z,6.28
2023-03-31T03:08:04.713Z,6.63
2023-03-31T03:13:35.987Z,5.15
2023-03-31T03:18:37.888Z,7.13
2023-03-31T03:23:39.734Z,6.27
2023-03-31T03:28:41.769Z,8.23
2023-03-31T03:33:43.641Z,4.05
2023-03-31T03:38:45.540Z,7.87
2023-03-31T03:43:47.403Z,9.07
2023-03-31T03:48:49.265Z,6.07
2023-03-31T03:53:51.107Z,4.50
2023-03-31T03:58:53.312Z,4.00
2023-03-31T04:03:55.155Z,7.90
2023-03-31T04:08:57.058Z,10.10
2023-03-31T04:13:59.043Z,5.40
2023-03-31T04:19:01.018Z,4.93
2023-03-31T04:24:03.016Z,6.32
2023-03-31T04:29:06.660Z,5.70
2023-03-31T04:34:12.434Z,5.68
2023-03-31T04:39:18.360Z,5.80
2023-03-31T04:44:20.208Z,4.57
2023-03-31T04:49:22.311Z,7.77
2023-03-31T04:54:24.145Z,7.57
2023-03-31T04:59:26.031Z,3.87
2023-03-31T05:04:27.948Z,9.17
2023-03-31T05:09:30.470Z,6.40
2023-03-31T05:14:32.374Z,5.13
2023-03-31T05:19:34.409Z,4.57
2023-03-31T05:24:36.408Z,5.15
2023-03-31T05:29:38.298Z,5.20
2023-03-31T05:34:40.171Z,6.17
2023-03-31T05:39:42.015Z,7.70
2023-03-31T05:44:43.926Z,10.33
2023-03-31T05:49:45.873Z,4.20
2023-03-31T05:54:47.776Z,4.47
2023-03-31T05:59:49.599Z,7.80
2023-03-31T06:04:51.404Z,9.63
2023-03-31T06:09:53.203Z,5.03
2023-03-31T06:14:54.967Z,6.57
2023-03-31T06:19:56.699Z,4.77
2023-03-31T06:24:58.423Z,4.17
2023-03-31T06:30:00.227Z,4.83
2023-03-31T06:35:02.039Z,6.47
2023-03-31T06:40:05.429Z,5.05
2023-03-31T06:45:07.535Z,4.78
2023-03-31T06:50:10.322Z,4.13
2023-03-31T06:55:12.291Z,7.10
2023-03-31T07:00:14.725Z,5.27
2023-03-31T07:05:16.653Z,6.22
2023-03-31T07:10:18.488Z,4.03
2023-03-31T07:15:20.336Z,4.73
2023-03-31T07:20:22.248Z,6.30
2023-03-31T07:25:24.059Z,6.90
2023-03-31T07:30:25.979Z,4.07
2023-03-31T07:35:27.863Z,8.57
2023-03-31T07:40:32.961Z,5.90
2023-03-31T07:45:34.953Z,8.37
2023-03-31T07:50:36.939Z,7.53
2023-03-31T07:55:38.727Z,4.10
2023-03-31T08:00:40.479Z,7.17
2023-03-31T08:05:42.266Z,6.37
2023-03-31T08:10:44.007Z,10.27
2023-03-31T08:15:45.819Z,6.43
2023-03-31T08:20:49.415Z,9.43
2023-03-31T08:25:51.940Z,6.93
2023-03-31T08:30:53.646Z,6.43
2023-03-31T08:35:55.453Z,8.55
2023-03-31T08:41:01.559Z,5.83
2023-03-31T08:46:03.463Z,8.00
2023-03-31T08:51:14.976Z,7.63
2023-03-31T08:56:17.534Z,9.52
2023-03-31T09:01:25.238Z,7.00
2023-03-31T09:06:54.278Z,11.15
2023-03-31T09:11:58.645Z,5.57
2023-03-31T09:17:14.303Z,5.28
2023-03-31T09:22:22.716Z,4.68
2023-03-31T09:27:24.688Z,6.30
2023-03-31T09:32:29.306Z,5.87
2023-03-31T09:37:31.997Z,6.65
2023-03-31T09:47:39.147Z,11.18
2023-03-31T09:52:43.699Z,6.35
2023-03-31T09:57:45.470Z,7.15
2023-03-31T10:02:51.615Z,3.65
2023-03-31T10:08:29.710Z,6.25
2023-03-31T10:13:50.081Z,8.55
2023-03-31T10:18:51.900Z,10.52
2023-03-31T10:23:54.084Z,7.90
2023-03-31T10:28:55.934Z,12.13
2023-03-31T10:33:57.718Z,9.83
2023-03-31T10:38:59.548Z,6.00
2023-03-31T10:44:04.323Z,9.37
2023-03-31T10:49:21.275Z,11.57
2023-03-31T10:54:23.086Z,10.43
2023-03-31T11:00:00.292Z,7.37
2023-03-31T11:05:23.420Z,9.55
2023-03-31T11:10:36.995Z,6.63
2023-03-31T11:16:19.118Z,12.82
2023-03-31T11:21:50.091Z,7.00
2023-03-31T11:27:07.032Z,9.98
2023-03-31T11:32:23.842Z,9.05
2023-03-31T11:37:28.957Z,8.00
2023-03-31T11:43:17.232Z,6.35
2023-03-31T11:48:37.611Z,6.95
2023-03-31T11:53:39.513Z,6.05
2023-03-31T11:58:47.362Z,8.17
2023-03-31T12:03:52.175Z,5.80
2023-03-31T12:09:05.095Z,10.63
2023-03-31T12:14:06.725Z,7.10
2023-03-31T12:19:18.712Z,7.40
2023-03-31T12:24:20.481Z,8.05
2023-03-31T12:29:27.387Z,7.23
2023-03-31T12:34:29.229Z,10.57
2023-03-31T12:39:42.988Z,8.93
2023-03-31T12:45:01.785Z,11.00
2023-03-31T12:50:36.038Z,8.45
2023-03-31T12:55:48.175Z,8.77
2023-03-31T13:01:21.837Z,9.50
2023-03-31T13:06:29.764Z,12.25
2023-03-31T13:11:34.557Z,7.53
2023-03-31T13:16:36.399Z,9.02
2023-03-31T13:21:57.533Z,6.17
2023-03-31T13:27:19.769Z,7.53
2023-03-31T13:32:23.617Z,8.30
2023-03-31T13:37:46.940Z,7.82
2023-03-31T13:42:57.394Z,6.75
2023-03-31T13:48:11.617Z,8.30
2023-03-31T13:53:35.974Z,7.28
2023-03-31T13:58:58.197Z,12.27
2023-03-31T14:04:15.407Z,12.82
2023-03-31T14:09:34.823Z,7.72
2023-03-31T14:14:40.533Z,7.57
2023-03-31T14:20:06.858Z,11.90
2023-03-31T14:25:27.166Z,9.02
2023-03-31T14:30:50.354Z,11.43
2023-03-31T14:36:00.574Z,9.80
2023-03-31T14:41:02.385Z,11.18
2023-03-31T14:46:05.838Z,12.37
2023-03-31T14:51:09.423Z,11.95
2023-03-31T14:56:22.357Z,11.52
2023-03-31T15:01:27.050Z,9.00
2023-03-31T15:06:29.229Z,10.75
2023-03-31T15:11:31.218Z,11.23
2023-03-31T15:16:36.693Z,15.47
2023-03-31T15:21:38.761Z,14.30
2023-03-31T15:26:54.931Z,16.38
2023-03-31T15:31:57.754Z,14.38
2023-03-31T15:37:00.126Z,15.45
2023-03-31T15:42:02.677Z,13.05
2023-03-31T15:47:17.985Z,13.10
2023-03-31T15:52:27.632Z,14.88
2023-03-31T15:57:34.633Z,15.77
2023-03-31T16:02:42.563Z,14.52
2023-03-31T16:07:44.373Z,15.88
2023-03-31T16:12:57.961Z,18.20
2023-03-31T16:18:08.029Z,17.38
2023-03-31T16:23:14.788Z,16.70
2023-03-31T16:28:18.547Z,13.82
2023-03-31T16:33:23.641Z,14.18
2023-03-31T16:38:27.255Z,12.20
2023-03-31T16:43:29.865Z,15.52
2023-03-31T16:48:31.926Z,13.98
2023-03-31T16:53:34.715Z,16.70
2023-03-31T16:58:37.111Z,13.43
2023-03-31T17:03:39.178Z,10.95
2023-03-31T17:08:41.081Z,12.52
2023-03-31T17:13:43.134Z,13.90
2023-03-31T17:18:44.963Z,11.20
2023-03-31T17:23:46.976Z,12.43
2023-03-31T17:28:48.870Z,13.20
2023-03-31T17:33:50.847Z,14.43
2023-03-31T17:38:52.842Z,12.20
2023-03-31T17:43:55.051Z,6.82
2023-03-31T17:48:56.863Z,8.95
2023-03-31T17:53:58.724Z,13.43
2023-03-31T17:59:00.542Z,10.90
2023-03-31T18:04:02.317Z,10.03
2023-03-31T18:09:04.175Z,7.30
2023-03-31T18:14:06.125Z,11.00
2023-03-31T18:19:08.013Z,24.30
2023-03-31T18:24:09.924Z,13.97
2023-03-31T18:29:11.883Z,11.10
2023-03-31T18:34:13.779Z,11.30
2023-03-31T18:39:15.611Z,46.53
2023-03-31T18:44:17.398Z,13.20
2023-03-31T18:49:19.210Z,15.47
2023-03-31T18:54:22.504Z,14.53
2023-03-31T18:59:24.316Z,29.13
2023-03-31T19:04:26.134Z,19.07
2023-03-31T19:09:27.967Z,11.17
2023-03-31T19:14:29.887Z,13.60
2023-03-31T19:19:31.712Z,21.50
2023-03-31T19:24:33.496Z,22.13
2023-03-31T19:29:35.290Z,11.47
2023-03-31T19:34:37.095Z,12.83
2023-03-31T19:39:38.810Z,23.87
2023-03-31T19:44:40.635Z,13.80
2023-03-31T19:49:42.352Z,23.47
2023-03-31T19:54:44.056Z,25.50
2023-03-31T19:59:45.774Z,16.52
2023-03-31T20:04:47.624Z,16.13
2023-03-31T20:09:49.366Z,13.43
2023-03-31T20:14:51.107Z,15.40
2023-03-31T20:19:52.877Z,16.60
2023-03-31T20:24:54.647Z,13.97
2023-03-31T20:29:56.442Z,19.63
2023-03-31T20:34:58.480Z,12.50
2023-03-31T20:40:00.328Z,18.53
2023-03-31T20:45:02.114Z,10.03
2023-03-31T20:55:07.310Z,10.40
2023-03-31T21:00:09.456Z,11.68
2023-03-31T21:05:11.257Z,36.50
2023-03-31T21:10:13.075Z,29.97
2023-03-31T21:15:14.840Z,23.83
2023-03-31T21:20:16.668Z,17.70
2023-03-31T21:25:18.413Z,11.53
2023-03-31T21:30:20.136Z,16.63
2023-03-31T21:35:21.891Z,22.77
2023-03-31T21:40:23.674Z,19.10
2023-03-31T21:45:25.469Z,20.42
2023-03-31T21:50:28.566Z,20.25
2023-03-31T21:55:33.739Z,17.77
2023-03-31T22:00:35.510Z,41.70
2023-03-31T22:05:37.273Z,18.67
2023-03-31T22:10:38.995Z,15.60
2023-03-31T22:15:41.049Z,16.97
2023-03-31T22:20:42.927Z,23.48
2023-03-31T22:25:44.662Z,20.47
2023-03-31T22:30:46.400Z,18.65
2023-03-31T22:35:48.140Z,18.30
2023-03-31T22:40:49.900Z,17.08
2023-03-31T22:45:51.651Z,29.93
2023-03-31T22:50:53.377Z,33.53
2023-03-31T22:55:55.124Z,22.83
2023-03-31T23:01:00.265Z,27.97
2023-03-31T23:06:03.305Z,24.40
2023-03-31T23:11:06.720Z,17.92
2023-03-31T23:16:10.594Z,43.88
2023-03-31T23:21:13.491Z,23.35
2023-03-31T23:26:15.238Z,21.55
2023-03-31T23:31:21.770Z,30.37
2023-03-31T23:36:23.553Z,27.02
2023-03-31T23:41:25.357Z,27.00
2023-03-31T23:46:27.184Z,16.83
2023-03-31T23:51:28.941Z,16.53
2023-03-31T23:56:30.725Z,28.80
